KPBF/PBF METAR and TAF weather

Enter ICAO airport designator
Station Type Date Time Source
KPBF METAR 2022/11/27 06:53 UTC NOAA

KPBF 270653Z AUTO 22012G22KT 10SM SCT028 BKN034 11/07 A2966 RMK AO2 PK WND 22029/0604 RAB0559E28B45E53 SLP044 P0000 T01110067


Station Type Date Time Source
KPBF Decoded METAR 2022/11/27 06:53 UTC NOAA

PINE BLUFF GRIDER FIELD, AR, United States (KPBF) 34-11N 091-56W 62M
Nov 27, 2022 - 01:53 AM EST / 2022.11.27 0653 UTC
Wind: from the SW (220 degrees) at 14 MPH (12 KT) gusting to 25 MPH (22 KT):0
Visibility: 10 mile(s):0
Sky conditions: mostly cloudy
Precipitation last hour: A trace
Temperature: 52.0 F (11.1 C)
Dew Point: 44.1 F (6.7 C)
Relative Humidity: 74%
Pressure (altimeter): 29.66 in. Hg (1004 hPa)
ob: KPBF 270653Z AUTO 22012G22KT 10SM SCT028 BKN034 11/07 A2966 RMK AO2 PK WND 22029/0604 RAB0559E28B45E53 SLP044 P0000 T01110067
cycle: 7

Station Type Date Time Source
KPBF TAF 2022/11/27 06:30 UTC NOAA

TAF KPBF 270528Z 2706/2806 23012G20KT P6SM SCT015 OVC060
TEMPO 2706/2708 OVC015
FM270800 23013G26KT P6SM OVC025
TEMPO 2708/2710 4SM -SHRA BR OVC015
FM271000 23013G28KT P6SM OVC015
FM271600 25013G23KT P6SM OVC025
FM280000 30003KT P6SM BKN050

Example: see airport list